createdAt,value
2023-03-22T00:00:48.000Z,0
2023-03-22T00:02:04.000Z,0
2023-03-22T00:03:20.000Z,0
2023-03-22T00:04:35.000Z,0
2023-03-22T00:05:51.000Z,0
2023-03-22T00:07:08.000Z,0
2023-03-22T00:08:24.000Z,0
2023-03-22T00:09:40.000Z,0
2023-03-22T00:10:56.000Z,0
2023-03-22T00:12:12.000Z,0
2023-03-22T00:13:29.000Z,0
2023-03-22T00:14:45.000Z,0
2023-03-22T00:16:01.000Z,0
2023-03-22T00:17:17.000Z,0
2023-03-22T00:18:33.000Z,0
2023-03-22T00:19:50.000Z,0
2023-03-22T00:21:05.000Z,0
2023-03-22T00:22:21.000Z,0
2023-03-22T00:23:37.000Z,0
2023-03-22T00:24:53.000Z,0
2023-03-22T00:26:10.000Z,0
2023-03-22T00:27:26.000Z,0
2023-03-22T00:28:42.000Z,0
2023-03-22T00:29:58.000Z,0
2023-03-22T00:31:14.000Z,0
2023-03-22T00:32:30.000Z,0
2023-03-22T00:33:47.000Z,0
2023-03-22T00:35:03.000Z,0
2023-03-22T00:36:19.000Z,0
2023-03-22T00:37:34.000Z,0
2023-03-22T00:38:50.000Z,0
2023-03-22T00:40:07.000Z,0
2023-03-22T00:41:23.000Z,0
2023-03-22T00:42:39.000Z,0
2023-03-22T00:43:55.000Z,0
2023-03-22T00:45:11.000Z,0
2023-03-22T00:46:28.000Z,0
2023-03-22T00:47:44.000Z,0
2023-03-22T00:49:00.000Z,0
2023-03-22T00:50:16.000Z,0
2023-03-22T00:51:32.000Z,0
2023-03-22T00:52:49.000Z,0
2023-03-22T00:54:04.000Z,0
2023-03-22T00:55:20.000Z,0
2023-03-22T00:56:36.000Z,0
2023-03-22T00:57:52.000Z,0
2023-03-22T00:59:08.000Z,0
2023-03-22T01:00:25.000Z,0
2023-03-22T01:01:41.000Z,0
2023-03-22T01:02:57.000Z,0
2023-03-22T01:04:13.000Z,0
2023-03-22T01:05:29.000Z,0
2023-03-22T01:06:46.000Z,0
2023-03-22T01:08:02.000Z,0
2023-03-22T01:09:18.000Z,0
2023-03-22T01:10:33.000Z,0
2023-03-22T01:11:49.000Z,0
2023-03-22T01:13:06.000Z,0
2023-03-22T01:14:22.000Z,0
2023-03-22T01:15:38.000Z,0
2023-03-22T01:16:54.000Z,0
2023-03-22T01:18:10.000Z,0
2023-03-22T01:19:27.000Z,0
2023-03-22T01:20:43.000Z,0
2023-03-22T01:21:59.000Z,0
2023-03-22T01:23:15.000Z,0
2023-03-22T01:24:31.000Z,0
2023-03-22T01:25:47.000Z,0
2023-03-22T01:27:03.000Z,0
2023-03-22T01:28:19.000Z,0
2023-03-22T01:29:35.000Z,0
2023-03-22T01:30:51.000Z,0
2023-03-22T01:32:07.000Z,0
2023-03-22T01:33:24.000Z,0
2023-03-22T01:34:40.000Z,0
2023-03-22T01:35:56.000Z,0
2023-03-22T01:37:12.000Z,0
2023-03-22T01:38:28.000Z,0
2023-03-22T01:39:45.000Z,0
2023-03-22T01:41:01.000Z,0
2023-03-22T01:42:17.000Z,0
2023-03-22T01:43:32.000Z,0
2023-03-22T01:44:48.000Z,0
2023-03-22T01:46:05.000Z,0
2023-03-22T01:47:21.000Z,0
2023-03-22T01:48:37.000Z,0
2023-03-22T01:49:53.000Z,0
2023-03-22T01:51:09.000Z,0
2023-03-22T01:52:25.000Z,0
2023-03-22T01:53:42.000Z,0
2023-03-22T01:54:58.000Z,0
2023-03-22T01:56:14.000Z,0
2023-03-22T01:57:30.000Z,0
2023-03-22T01:58:46.000Z,0
2023-03-22T02:00:02.000Z,0
2023-03-22T02:01:18.000Z,0
2023-03-22T02:02:34.000Z,0
2023-03-22T02:03:50.000Z,0
2023-03-22T02:05:06.000Z,0
2023-03-22T02:06:23.000Z,0
2023-03-22T02:07:39.000Z,0
2023-03-22T02:08:55.000Z,0
2023-03-22T02:10:11.000Z,0
2023-03-22T02:11:27.000Z,0
2023-03-22T02:12:44.000Z,0
2023-03-22T02:14:00.000Z,0
2023-03-22T02:15:16.000Z,0
2023-03-22T02:16:31.000Z,0
2023-03-22T02:17:47.000Z,0
2023-03-22T02:19:03.000Z,0
2023-03-22T02:20:20.000Z,0
2023-03-22T02:21:36.000Z,0
2023-03-22T02:22:52.000Z,0
2023-03-22T02:24:08.000Z,0
2023-03-22T02:25:24.000Z,0
2023-03-22T02:26:41.000Z,0
2023-03-22T02:27:57.000Z,0
2023-03-22T02:29:13.000Z,0
2023-03-22T02:30:29.000Z,0
2023-03-22T02:31:45.000Z,0
2023-03-22T02:33:01.000Z,0
2023-03-22T02:34:17.000Z,0
2023-03-22T02:35:33.000Z,0
2023-03-22T02:36:49.000Z,0
2023-03-22T02:38:05.000Z,0
2023-03-22T02:39:22.000Z,0
2023-03-22T02:40:38.000Z,0
2023-03-22T02:41:54.000Z,0
2023-03-22T02:43:10.000Z,0
2023-03-22T02:44:26.000Z,0
2023-03-22T02:45:42.000Z,0
2023-03-22T02:46:59.000Z,0
2023-03-22T02:48:15.000Z,0
2023-03-22T02:49:30.000Z,0
2023-03-22T02:50:46.000Z,0
2023-03-22T02:52:02.000Z,0
2023-03-22T02:53:19.000Z,0
2023-03-22T02:54:35.000Z,0
2023-03-22T02:55:51.000Z,0
2023-03-22T02:57:07.000Z,0
2023-03-22T02:59:40.000Z,0
2023-03-22T03:00:56.000Z,0
2023-03-22T03:02:12.000Z,0
2023-03-22T03:03:28.000Z,0
2023-03-22T03:04:44.000Z,0
2023-03-22T03:06:00.000Z,0
2023-03-22T03:07:16.000Z,0
2023-03-22T03:08:32.000Z,0
2023-03-22T03:09:48.000Z,0
2023-03-22T03:11:04.000Z,0
2023-03-22T03:12:20.000Z,0
2023-03-22T03:13:37.000Z,0
2023-03-22T03:14:53.000Z,0
2023-03-22T03:16:09.000Z,0
2023-03-22T03:17:25.000Z,0
2023-03-22T03:18:41.000Z,0
2023-03-22T03:19:58.000Z,0
2023-03-22T03:21:14.000Z,0
2023-03-22T03:22:29.000Z,0
2023-03-22T03:23:45.000Z,0
2023-03-22T03:25:01.000Z,0
2023-03-22T03:26:18.000Z,0
2023-03-22T03:27:34.000Z,0
2023-03-22T03:28:50.000Z,0
2023-03-22T03:30:06.000Z,0
2023-03-22T03:31:22.000Z,0
2023-03-22T03:32:39.000Z,0
2023-03-22T03:33:55.000Z,0
2023-03-22T03:35:11.000Z,0
2023-03-22T03:36:27.000Z,0
2023-03-22T03:37:43.000Z,0
2023-03-22T03:38:58.000Z,0
2023-03-22T03:40:15.000Z,0
2023-03-22T03:41:31.000Z,0
2023-03-22T03:42:47.000Z,0
2023-03-22T03:44:03.000Z,0
2023-03-22T03:45:19.000Z,0
2023-03-22T03:46:36.000Z,0
2023-03-22T03:47:52.000Z,0
2023-03-22T03:49:08.000Z,0
2023-03-22T03:50:24.000Z,0
2023-03-22T03:51:40.000Z,0
2023-03-22T03:52:57.000Z,0
2023-03-22T03:54:13.000Z,0
2023-03-22T03:55:28.000Z,0
2023-03-22T03:56:44.000Z,0
2023-03-22T03:58:00.000Z,0
2023-03-22T03:59:17.000Z,0
2023-03-22T04:00:33.000Z,0
2023-03-22T04:01:49.000Z,0
2023-03-22T04:03:05.000Z,0
2023-03-22T04:04:21.000Z,0
2023-03-22T04:05:37.000Z,0
2023-03-22T04:06:54.000Z,0
2023-03-22T04:08:10.000Z,0
2023-03-22T04:09:26.000Z,0
2023-03-22T04:10:42.000Z,0
2023-03-22T04:11:57.000Z,0
2023-03-22T04:13:14.000Z,0
2023-03-22T04:14:30.000Z,0
2023-03-22T04:15:46.000Z,0
2023-03-22T04:17:02.000Z,0
2023-03-22T04:18:18.000Z,0
2023-03-22T04:19:34.000Z,0
2023-03-22T04:20:50.000Z,0
2023-03-22T04:22:06.000Z,0
2023-03-22T04:23:22.000Z,0
2023-03-22T04:24:38.000Z,0
2023-03-22T04:25:55.000Z,0
2023-03-22T04:27:11.000Z,0
2023-03-22T04:28:27.000Z,0
2023-03-22T04:29:43.000Z,0
2023-03-22T04:30:59.000Z,0
2023-03-22T04:32:15.000Z,0
2023-03-22T04:33:32.000Z,0
2023-03-22T04:34:48.000Z,0
2023-03-22T04:36:03.000Z,0
2023-03-22T04:37:19.000Z,0
2023-03-22T04:38:35.000Z,0
2023-03-22T04:39:52.000Z,0
2023-03-22T04:41:08.000Z,0
2023-03-22T04:42:24.000Z,0
2023-03-22T04:43:40.000Z,0
2023-03-22T04:44:56.000Z,0
2023-03-22T04:46:13.000Z,0
2023-03-22T04:47:29.000Z,0
2023-03-22T04:48:45.000Z,0
2023-03-22T04:50:01.000Z,0
2023-03-22T04:51:17.000Z,0
2023-03-22T04:52:33.000Z,0
2023-03-22T04:53:49.000Z,0
2023-03-22T04:55:05.000Z,0
2023-03-22T04:56:21.000Z,0
2023-03-22T04:57:37.000Z,0
2023-03-22T04:58:53.000Z,4
2023-03-22T05:00:10.000Z,4
2023-03-22T05:01:26.000Z,4
2023-03-22T05:02:42.000Z,4
2023-03-22T05:03:58.000Z,4
2023-03-22T05:05:14.000Z,4
2023-03-22T05:06:31.000Z,8
2023-03-22T05:07:47.000Z,12
2023-03-22T05:09:02.000Z,16
2023-03-22T05:10:18.000Z,16
2023-03-22T05:11:34.000Z,24
2023-03-22T05:12:51.000Z,28
2023-03-22T05:14:07.000Z,32
2023-03-22T05:15:23.000Z,40
2023-03-22T05:16:39.000Z,48
2023-03-22T05:17:55.000Z,56
2023-03-22T05:19:12.000Z,68
2023-03-22T05:20:28.000Z,80
2023-03-22T05:21:44.000Z,92
2023-03-22T05:23:00.000Z,108
2023-03-22T05:24:16.000Z,132
2023-03-22T05:25:31.000Z,152
2023-03-22T05:26:48.000Z,180
2023-03-22T05:28:04.000Z,212
2023-03-22T05:29:20.000Z,248
2023-03-22T05:30:36.000Z,292
2023-03-22T05:31:52.000Z,340
2023-03-22T05:33:09.000Z,396
2023-03-22T05:34:25.000Z,460
2023-03-22T05:35:41.000Z,536
2023-03-22T05:36:57.000Z,616
2023-03-22T05:38:13.000Z,700
2023-03-22T05:39:30.000Z,780
2023-03-22T05:40:46.000Z,852
2023-03-22T05:42:01.000Z,916
2023-03-22T05:43:17.000Z,968
2023-03-22T05:44:33.000Z,996
2023-03-22T05:45:50.000Z,1024
2023-03-22T05:47:06.000Z,1060
2023-03-22T05:48:22.000Z,1132
2023-03-22T05:49:38.000Z,1260
2023-03-22T05:50:54.000Z,1252
2023-03-22T05:52:10.000Z,1356
2023-03-22T05:53:27.000Z,1400
2023-03-22T05:54:43.000Z,1348
2023-03-22T05:55:59.000Z,1392
2023-03-22T05:57:15.000Z,1528
2023-03-22T05:58:30.000Z,1656
2023-03-22T05:59:47.102Z,1544
2023-03-22T06:01:03.000Z,1420
2023-03-22T06:02:19.000Z,1284
2023-03-22T06:03:35.000Z,1164
2023-03-22T06:04:51.000Z,1108
2023-03-22T06:06:08.000Z,1112
2023-03-22T06:07:24.000Z,1144
2023-03-22T06:08:40.000Z,1360
2023-03-22T06:09:56.000Z,1544
2023-03-22T06:11:12.000Z,1652
2023-03-22T06:12:28.000Z,1764
2023-03-22T06:13:45.000Z,1812
2023-03-22T06:15:00.000Z,1840
2023-03-22T06:16:16.000Z,1876
2023-03-22T06:17:32.000Z,2024
2023-03-22T06:18:48.000Z,1904
2023-03-22T06:20:05.000Z,1892
2023-03-22T06:21:21.000Z,1992
2023-03-22T06:22:37.000Z,2004
2023-03-22T06:23:53.000Z,2080
2023-03-22T06:25:09.000Z,2204
2023-03-22T06:26:26.000Z,2360
2023-03-22T06:27:42.000Z,2544
2023-03-22T06:28:58.000Z,2748
2023-03-22T06:30:14.000Z,2992
2023-03-22T06:31:29.000Z,3256
2023-03-22T06:32:46.000Z,3500
2023-03-22T06:34:02.000Z,3776
2023-03-22T06:35:18.000Z,4104
2023-03-22T06:36:34.000Z,4420
2023-03-22T06:37:50.000Z,4732
2023-03-22T06:39:07.000Z,4996
2023-03-22T06:40:23.000Z,5252
2023-03-22T06:41:39.000Z,5372
2023-03-22T06:42:55.000Z,5424
2023-03-22T06:44:11.000Z,5404
2023-03-22T06:45:27.000Z,5344
2023-03-22T06:46:44.000Z,5428
2023-03-22T06:47:59.000Z,5548
2023-03-22T06:49:15.000Z,5608
2023-03-22T06:50:31.000Z,5524
2023-03-22T06:51:47.000Z,5800
2023-03-22T06:53:04.090Z,5444
2023-03-22T06:54:20.000Z,4752
2023-03-22T06:55:36.000Z,4480
2023-03-22T06:56:52.000Z,4268
2023-03-22T06:58:08.000Z,4316
2023-03-22T06:59:25.000Z,4240
2023-03-22T07:00:41.000Z,3920
2023-03-22T07:01:57.000Z,3876
2023-03-22T07:03:13.000Z,3876
2023-03-22T07:04:28.000Z,3896
2023-03-22T07:05:44.000Z,3820
2023-03-22T07:07:01.000Z,3792
2023-03-22T07:08:17.000Z,3728
2023-03-22T07:09:33.000Z,3672
2023-03-22T07:10:49.000Z,3664
2023-03-22T07:12:05.000Z,3664
2023-03-22T07:13:22.000Z,3592
2023-03-22T07:14:38.000Z,3432
2023-03-22T07:15:54.000Z,3264
2023-03-22T07:17:10.000Z,3144
2023-03-22T07:18:26.000Z,3112
2023-03-22T07:19:43.000Z,3216
2023-03-22T07:20:58.000Z,3428
2023-03-22T07:22:14.000Z,3624
2023-03-22T07:23:30.000Z,3748
2023-03-22T07:24:46.000Z,3780
2023-03-22T07:26:03.000Z,3760
2023-03-22T07:27:19.000Z,3728
2023-03-22T07:28:35.000Z,3660
2023-03-22T07:29:51.000Z,3764
2023-03-22T07:31:07.000Z,3952
2023-03-22T07:32:23.000Z,4340
2023-03-22T07:33:40.000Z,4880
2023-03-22T07:34:56.000Z,5572
2023-03-22T07:36:12.000Z,6244
2023-03-22T07:37:27.000Z,6788
2023-03-22T07:38:43.000Z,7384
2023-03-22T07:40:00.000Z,8596
2023-03-22T07:41:16.000Z,9732
2023-03-22T07:42:32.000Z,8476
2023-03-22T07:43:48.000Z,7728
2023-03-22T07:45:04.000Z,7500
2023-03-22T07:46:21.000Z,7136
2023-03-22T07:47:37.000Z,8844
2023-03-22T07:48:53.000Z,8400
2023-03-22T07:50:09.000Z,7288
2023-03-22T07:51:25.000Z,7372
2023-03-22T07:52:42.000Z,7656
2023-03-22T07:53:57.000Z,8484
2023-03-22T07:55:13.000Z,10528
2023-03-22T07:56:29.000Z,10396
2023-03-22T07:57:45.000Z,9964
2023-03-22T07:59:01.000Z,10832
2023-03-22T08:00:18.000Z,11392
2023-03-22T08:01:34.000Z,11688
2023-03-22T08:02:50.000Z,11792
2023-03-22T08:04:06.000Z,11508
2023-03-22T08:05:22.000Z,9956
2023-03-22T08:06:39.000Z,8536
2023-03-22T08:07:55.000Z,8300
2023-03-22T08:09:11.000Z,7552
2023-03-22T08:10:26.000Z,8200
2023-03-22T08:11:42.000Z,7420
2023-03-22T08:12:59.000Z,7600
2023-03-22T08:14:15.000Z,7452
2023-03-22T08:15:31.000Z,8252
2023-03-22T08:16:47.000Z,8908
2023-03-22T08:18:03.000Z,8796
2023-03-22T08:19:20.000Z,9448
2023-03-22T08:20:36.000Z,9492
2023-03-22T08:21:52.000Z,10152
2023-03-22T08:23:08.000Z,9864
2023-03-22T08:24:24.000Z,9476
2023-03-22T08:25:41.000Z,9692
2023-03-22T08:26:56.000Z,10400
2023-03-22T08:28:12.000Z,10544
2023-03-22T08:29:28.000Z,10000
2023-03-22T08:30:44.000Z,9660
2023-03-22T08:32:00.000Z,9300
2023-03-22T08:33:17.000Z,10396
2023-03-22T08:34:32.000Z,9508
2023-03-22T08:35:48.000Z,11076
2023-03-22T08:37:04.000Z,11768
2023-03-22T08:38:20.000Z,11044
2023-03-22T08:39:37.000Z,11576
2023-03-22T08:40:53.000Z,10996
2023-03-22T08:42:09.000Z,11756
2023-03-22T08:43:25.000Z,10576
2023-03-22T08:44:41.000Z,10156
2023-03-22T08:45:58.000Z,10164
2023-03-22T08:47:14.000Z,9872
2023-03-22T08:48:30.000Z,9348
2023-03-22T08:49:46.000Z,9452
2023-03-22T08:51:01.000Z,8304
2023-03-22T08:52:18.000Z,8568
2023-03-22T08:53:34.000Z,10112
2023-03-22T08:54:50.000Z,11984
2023-03-22T08:56:06.000Z,14704
2023-03-22T08:57:22.000Z,14596
2023-03-22T08:58:39.000Z,15796
2023-03-22T08:59:55.000Z,15876
2023-03-22T09:01:11.000Z,12472
2023-03-22T09:02:27.000Z,10552
2023-03-22T09:03:43.000Z,11244
2023-03-22T09:04:59.000Z,12276
2023-03-22T09:06:16.000Z,11132
2023-03-22T09:07:31.000Z,12012
2023-03-22T09:08:47.000Z,12300
2023-03-22T09:10:03.000Z,13156
2023-03-22T09:11:19.000Z,12824
2023-03-22T09:12:36.000Z,13588
2023-03-22T09:13:52.000Z,13380
2023-03-22T09:15:08.000Z,14640
2023-03-22T09:16:24.000Z,14440
2023-03-22T09:17:40.000Z,14452
2023-03-22T09:18:57.000Z,13188
2023-03-22T09:20:13.000Z,12480
2023-03-22T09:21:29.000Z,10972
2023-03-22T09:22:45.000Z,10608
2023-03-22T09:24:00.000Z,8616
2023-03-22T09:25:17.000Z,7972
2023-03-22T09:26:33.000Z,8480
2023-03-22T09:27:49.000Z,8368
2023-03-22T09:29:05.000Z,8052
2023-03-22T09:30:21.000Z,7472
2023-03-22T09:31:37.000Z,8720
2023-03-22T09:32:54.000Z,10260
2023-03-22T09:34:10.000Z,12436
2023-03-22T09:35:26.000Z,12200
2023-03-22T09:36:42.000Z,11876
2023-03-22T09:37:58.000Z,12864
2023-03-22T09:39:15.000Z,11240
2023-03-22T09:40:30.000Z,11964
2023-03-22T09:41:46.000Z,12904
2023-03-22T09:43:02.000Z,10784
2023-03-22T09:44:18.000Z,12504
2023-03-22T09:45:35.000Z,12960
2023-03-22T09:46:51.000Z,11904
2023-03-22T09:48:07.000Z,12000
2023-03-22T09:49:23.000Z,14160
2023-03-22T09:50:39.000Z,12812
2023-03-22T09:51:56.000Z,11388
2023-03-22T09:53:12.000Z,10900
2023-03-22T09:54:28.000Z,11472
2023-03-22T09:55:44.000Z,11848
2023-03-22T09:56:59.000Z,12136
2023-03-22T09:58:16.000Z,11240
2023-03-22T09:59:32.000Z,11412
2023-03-22T10:00:48.000Z,11288
2023-03-22T10:02:04.000Z,11920
2023-03-22T10:03:20.000Z,16300
2023-03-22T10:04:36.000Z,16376
2023-03-22T10:05:53.000Z,17344
2023-03-22T10:07:09.000Z,18752
2023-03-22T10:08:25.000Z,17184
2023-03-22T10:09:41.000Z,13520
2023-03-22T10:10:57.000Z,17280
2023-03-22T10:12:14.000Z,21696
2023-03-22T10:13:29.000Z,18272
2023-03-22T10:14:45.000Z,21824
2023-03-22T10:16:01.000Z,19200
2023-03-22T10:17:17.000Z,18368
2023-03-22T10:18:34.000Z,18656
2023-03-22T10:19:50.000Z,16440
2023-03-22T10:21:06.000Z,17632
2023-03-22T10:22:22.000Z,16392
2023-03-22T10:23:38.000Z,16340
2023-03-22T10:24:55.000Z,17504
2023-03-22T10:26:11.000Z,15980
2023-03-22T10:27:27.000Z,15204
2023-03-22T10:28:43.000Z,14044
2023-03-22T10:29:58.000Z,12844
2023-03-22T10:31:14.000Z,11640
2023-03-22T10:32:31.000Z,11280
2023-03-22T10:33:47.000Z,11004
2023-03-22T10:35:03.000Z,10684
2023-03-22T10:36:19.000Z,10204
2023-03-22T10:37:35.000Z,9160
2023-03-22T10:38:52.000Z,9800
2023-03-22T10:40:08.000Z,10676
2023-03-22T10:41:24.000Z,11448
2023-03-22T10:42:40.000Z,13904
2023-03-22T10:43:56.000Z,14552
2023-03-22T10:45:13.000Z,16336
2023-03-22T10:46:28.000Z,19520
2023-03-22T10:47:44.000Z,27360
2023-03-22T10:49:00.000Z,22368
2023-03-22T10:50:16.000Z,30208
2023-03-22T10:51:33.000Z,32544
2023-03-22T10:52:49.000Z,28544
2023-03-22T10:54:05.000Z,26016
2023-03-22T10:55:21.000Z,28000
2023-03-22T10:56:37.000Z,29984
2023-03-22T10:57:54.000Z,29728
2023-03-22T10:59:10.000Z,27776
2023-03-22T11:00:26.000Z,33856
2023-03-22T11:01:42.000Z,35520
2023-03-22T11:02:57.000Z,33568
2023-03-22T11:04:13.000Z,25952
2023-03-22T11:05:30.000Z,26144
2023-03-22T11:06:46.000Z,26432
2023-03-22T11:08:02.000Z,27584
2023-03-22T11:09:18.000Z,26912
2023-03-22T11:10:34.000Z,23008
2023-03-22T11:11:51.000Z,19936
2023-03-22T11:13:07.000Z,20896
2023-03-22T11:14:23.000Z,27296
2023-03-22T11:15:39.000Z,26368
2023-03-22T11:16:55.000Z,29408
2023-03-22T11:18:12.000Z,31072
2023-03-22T11:19:27.000Z,25280
2023-03-22T11:20:43.000Z,18784
2023-03-22T11:21:59.000Z,16556
2023-03-22T11:23:15.000Z,16384
2023-03-22T11:24:32.000Z,16344
2023-03-22T11:25:48.000Z,17120
2023-03-22T11:27:04.000Z,14160
2023-03-22T11:28:20.000Z,12660
2023-03-22T11:29:36.000Z,12032
2023-03-22T11:30:52.000Z,12948
2023-03-22T11:32:09.000Z,13236
2023-03-22T11:33:25.000Z,12892
2023-03-22T11:34:41.000Z,13096
2023-03-22T11:35:56.000Z,13668
2023-03-22T11:37:12.000Z,14136
2023-03-22T11:38:29.000Z,14428
2023-03-22T11:39:45.000Z,14512
2023-03-22T11:41:01.000Z,13656
2023-03-22T11:42:17.000Z,13376
2023-03-22T11:43:33.000Z,13284
2023-03-22T11:44:50.000Z,13068
2023-03-22T11:46:06.000Z,12688
2023-03-22T11:47:22.000Z,12928
2023-03-22T11:48:38.000Z,12728
2023-03-22T11:49:54.000Z,12944
2023-03-22T11:51:11.000Z,13212
2023-03-22T11:52:26.000Z,13356
2023-03-22T11:53:42.000Z,13296
2023-03-22T11:54:58.000Z,13192
2023-03-22T11:56:14.000Z,13092
2023-03-22T11:57:31.000Z,12896
2023-03-22T11:58:47.000Z,12640
2023-03-22T12:00:03.000Z,12384
2023-03-22T12:01:19.000Z,12064
2023-03-22T12:02:35.000Z,11636
2023-03-22T12:03:51.000Z,11320
2023-03-22T12:05:08.000Z,11196
2023-03-22T12:06:24.000Z,11052
2023-03-22T12:07:40.000Z,10604
2023-03-22T12:08:55.000Z,10152
2023-03-22T12:10:11.000Z,9728
2023-03-22T12:11:28.000Z,9596
2023-03-22T12:12:44.000Z,9260
2023-03-22T12:14:00.000Z,8704
2023-03-22T12:15:16.000Z,8408
2023-03-22T12:16:32.000Z,8616
2023-03-22T12:17:49.000Z,8920
2023-03-22T12:19:05.000Z,9024
2023-03-22T12:20:21.000Z,8628
2023-03-22T12:21:37.000Z,8080
2023-03-22T12:22:53.000Z,7700
2023-03-22T12:24:10.000Z,7732
2023-03-22T12:25:25.000Z,7872
2023-03-22T12:26:41.000Z,8072
2023-03-22T12:27:57.000Z,8328
2023-03-22T12:29:13.000Z,8592
2023-03-22T12:30:29.000Z,8816
2023-03-22T12:31:46.000Z,8664
2023-03-22T12:33:02.000Z,8724
2023-03-22T12:34:18.000Z,9000
2023-03-22T12:35:34.000Z,9068
2023-03-22T12:36:50.000Z,8844
2023-03-22T12:38:07.000Z,8388
2023-03-22T12:39:23.000Z,8240
2023-03-22T12:40:39.000Z,7848
2023-03-22T12:41:54.000Z,7676
2023-03-22T12:43:10.000Z,6852
2023-03-22T12:44:27.000Z,6048
2023-03-22T12:45:43.000Z,5852
2023-03-22T12:46:59.000Z,5628
2023-03-22T12:48:15.000Z,5496
2023-03-22T12:49:30.000Z,5768
2023-03-22T12:50:47.000Z,6220
2023-03-22T12:52:03.000Z,6684
2023-03-22T12:53:19.000Z,7028
2023-03-22T12:54:35.000Z,7188
2023-03-22T12:55:51.000Z,7268
2023-03-22T12:57:08.000Z,7044
2023-03-22T12:58:24.000Z,6756
2023-03-22T12:59:40.000Z,6888
2023-03-22T13:00:56.000Z,7048
2023-03-22T13:02:12.000Z,7036
2023-03-22T13:03:28.000Z,6880
2023-03-22T13:04:45.000Z,6832
2023-03-22T13:06:00.000Z,6952
2023-03-22T13:07:16.000Z,7560
2023-03-22T13:08:32.000Z,8220
2023-03-22T13:09:48.000Z,7880
2023-03-22T13:11:05.000Z,7448
2023-03-22T13:12:21.000Z,7228
2023-03-22T13:13:37.000Z,7084
2023-03-22T13:14:53.000Z,7576
2023-03-22T13:16:09.000Z,8040
2023-03-22T13:17:26.000Z,8416
2023-03-22T13:18:42.000Z,8780
2023-03-22T13:19:58.000Z,9820
2023-03-22T13:21:14.000Z,10292
2023-03-22T13:22:29.000Z,10456
2023-03-22T13:23:46.000Z,10588
2023-03-22T13:25:02.000Z,11256
2023-03-22T13:26:18.000Z,11840
2023-03-22T13:27:34.000Z,13208
2023-03-22T13:28:50.000Z,14208
2023-03-22T13:30:06.000Z,13788
2023-03-22T13:31:23.000Z,13436
2023-03-22T13:32:39.000Z,13472
2023-03-22T13:33:55.000Z,12772
2023-03-22T13:35:11.000Z,11912
2023-03-22T13:36:27.000Z,11068
2023-03-22T13:37:44.000Z,10572
2023-03-22T13:39:00.000Z,11048
2023-03-22T13:40:15.000Z,11156
2023-03-22T13:41:31.000Z,10948
2023-03-22T13:42:47.000Z,9652
2023-03-22T13:44:04.000Z,9032
2023-03-22T13:45:20.000Z,9428
2023-03-22T13:46:36.000Z,8324
2023-03-22T13:47:52.000Z,9400
2023-03-22T13:49:08.000Z,10324
2023-03-22T13:50:25.000Z,11292
2023-03-22T13:51:41.000Z,11560
2023-03-22T13:52:57.000Z,11444
2023-03-22T13:54:13.000Z,11092
2023-03-22T13:55:29.000Z,11428
2023-03-22T13:56:45.000Z,11764
2023-03-22T13:58:01.000Z,12104
2023-03-22T13:59:17.000Z,11700
2023-03-22T14:00:33.000Z,11228
2023-03-22T14:01:49.000Z,11288
2023-03-22T14:03:05.000Z,11160
2023-03-22T14:04:22.000Z,11456
2023-03-22T14:05:38.000Z,11480
2023-03-22T14:06:54.000Z,10460
2023-03-22T14:08:10.000Z,9576
2023-03-22T14:09:26.000Z,9312
2023-03-22T14:10:43.000Z,9448
2023-03-22T14:11:59.000Z,9568
2023-03-22T14:13:14.000Z,9872
2023-03-22T14:14:30.000Z,10720
2023-03-22T14:15:46.000Z,11236
2023-03-22T14:17:03.000Z,11168
2023-03-22T14:18:19.000Z,10796
2023-03-22T14:19:35.000Z,10928
2023-03-22T14:20:51.000Z,10860
2023-03-22T14:52:34.000Z,5680
2023-03-22T14:53:50.000Z,5688
2023-03-22T14:55:06.000Z,5384
2023-03-22T14:56:23.000Z,4424
2023-03-22T14:57:39.000Z,4120
2023-03-22T14:58:55.000Z,3784
2023-03-22T15:00:11.000Z,3884
2023-03-22T15:01:27.000Z,3644
2023-03-22T15:02:42.000Z,3552
2023-03-22T15:03:59.000Z,3756
2023-03-22T15:05:15.000Z,3972
2023-03-22T15:06:31.000Z,3676
2023-03-22T15:07:47.000Z,3596
2023-03-22T15:09:03.000Z,3864
2023-03-22T15:10:20.000Z,3992
2023-03-22T15:11:36.000Z,3692
2023-03-22T15:12:52.000Z,3764
2023-03-22T15:14:08.000Z,3668
2023-03-22T15:15:24.000Z,3380
2023-03-22T15:16:41.000Z,2616
2023-03-22T15:17:57.000Z,2884
2023-03-22T15:19:12.000Z,2528
2023-03-22T15:20:28.000Z,2096
2023-03-22T15:21:44.000Z,2120
2023-03-22T15:23:01.000Z,1912
2023-03-22T15:24:17.000Z,1840
2023-03-22T15:25:33.000Z,1668
2023-03-22T15:26:49.000Z,1644
2023-03-22T15:28:05.000Z,1624
2023-03-22T15:29:21.000Z,1488
2023-03-22T15:30:38.000Z,1772
2023-03-22T15:31:54.000Z,1748
2023-03-22T15:33:10.000Z,1900
2023-03-22T15:34:26.000Z,1908
2023-03-22T15:35:41.000Z,1880
2023-03-22T15:36:58.000Z,1884
2023-03-22T15:38:14.000Z,1992
2023-03-22T15:39:30.000Z,2408
2023-03-22T15:40:46.000Z,2496
2023-03-22T15:42:02.000Z,3140
2023-03-22T15:43:19.000Z,3412
2023-03-22T15:44:35.000Z,4164
2023-03-22T15:45:51.000Z,4768
2023-03-22T15:47:07.000Z,5104
2023-03-22T15:48:23.000Z,4924
2023-03-22T15:49:40.000Z,4592
2023-03-22T15:50:56.000Z,4188
2023-03-22T15:52:11.000Z,3576
2023-03-22T15:53:27.000Z,3160
2023-03-22T15:54:43.000Z,3268
2023-03-22T15:56:00.000Z,3392
2023-03-22T15:57:16.000Z,3528
2023-03-22T15:58:32.000Z,3960
2023-03-22T15:59:48.000Z,4040
2023-03-22T16:01:04.000Z,3896
2023-03-22T16:02:20.000Z,3712
2023-03-22T16:03:37.000Z,3896
2023-03-22T16:04:53.000Z,3944
2023-03-22T16:06:09.000Z,3776
2023-03-22T16:07:25.000Z,3492
2023-03-22T16:08:40.000Z,3464
2023-03-22T16:09:57.000Z,3428
2023-03-22T16:11:13.000Z,3148
2023-03-22T16:12:29.000Z,2764
2023-03-22T16:13:45.000Z,2580
2023-03-22T16:15:01.000Z,2620
2023-03-22T16:16:18.000Z,2780
2023-03-22T16:17:34.000Z,2780
2023-03-22T16:18:50.000Z,2632
2023-03-22T16:20:06.000Z,2596
2023-03-22T16:21:22.000Z,2680
2023-03-22T16:22:39.000Z,2788
2023-03-22T16:23:55.000Z,2752
2023-03-22T16:25:10.000Z,2704
2023-03-22T16:26:26.000Z,2808
2023-03-22T16:27:42.000Z,2920
2023-03-22T16:28:58.962Z,2904
2023-03-22T16:30:15.000Z,2792
2023-03-22T16:31:31.000Z,2720
2023-03-22T16:32:47.000Z,2700
2023-03-22T16:34:03.000Z,2680
2023-03-22T16:35:19.000Z,2604
2023-03-22T16:36:36.000Z,2512
2023-03-22T16:37:52.000Z,2356
2023-03-22T16:39:08.000Z,2240
2023-03-22T16:40:24.000Z,2204
2023-03-22T16:41:39.000Z,2000
2023-03-22T16:42:56.000Z,1888
2023-03-22T16:44:12.000Z,1776
2023-03-22T16:45:28.000Z,1592
2023-03-22T16:46:44.000Z,1404
2023-03-22T16:48:00.000Z,1332
2023-03-22T16:49:17.000Z,1372
2023-03-22T16:50:33.000Z,1228
2023-03-22T16:51:49.000Z,1260
2023-03-22T16:53:05.000Z,1200
2023-03-22T16:54:21.000Z,1084
2023-03-22T16:55:38.000Z,944
2023-03-22T16:56:54.000Z,848
2023-03-22T16:58:09.000Z,800
2023-03-22T16:59:25.000Z,796
2023-03-22T17:00:41.000Z,792
2023-03-22T17:01:57.000Z,768
2023-03-22T17:03:14.000Z,740
2023-03-22T17:04:29.000Z,736
2023-03-22T17:05:45.000Z,760
2023-03-22T17:07:01.000Z,820
2023-03-22T17:08:17.000Z,904
2023-03-22T17:09:34.000Z,904
2023-03-22T17:10:50.000Z,936
2023-03-22T17:12:06.000Z,1008
2023-03-22T17:13:22.000Z,1060
2023-03-22T17:14:38.000Z,888
2023-03-22T17:15:55.000Z,780
2023-03-22T17:17:11.000Z,760
2023-03-22T17:18:27.000Z,688
2023-03-22T17:19:43.000Z,472
2023-03-22T17:20:58.000Z,420
2023-03-22T17:22:15.000Z,404
2023-03-22T17:23:31.000Z,408
2023-03-22T17:24:47.000Z,332
2023-03-22T17:26:03.000Z,288
2023-03-22T17:27:19.000Z,292
2023-03-22T17:28:35.000Z,260
2023-03-22T17:29:52.000Z,212
2023-03-22T17:31:08.000Z,224
2023-03-22T17:32:24.000Z,204
2023-03-22T17:33:40.000Z,184
2023-03-22T17:34:56.000Z,152
2023-03-22T17:36:13.000Z,144
2023-03-22T17:37:28.000Z,132
2023-03-22T17:38:44.000Z,128
2023-03-22T17:40:00.000Z,116
2023-03-22T17:41:16.000Z,100
2023-03-22T17:42:33.000Z,88
2023-03-22T17:43:49.000Z,76
2023-03-22T17:45:05.000Z,68
2023-03-22T17:46:21.000Z,64
2023-03-22T17:47:37.000Z,56
2023-03-22T17:48:54.000Z,56
2023-03-22T17:50:10.000Z,44